createdAt,value
2022-09-28T00:02:25.650Z,98922.20
2022-09-28T00:04:52.826Z,98916.41
2022-09-28T00:07:19.555Z,98917.66
2022-09-28T00:09:46.327Z,98915.91
2022-09-28T00:12:13.151Z,98912.05
2022-09-28T00:14:40.644Z,98913.46
2022-09-28T00:17:08.253Z,98913.70
2022-09-28T00:19:34.970Z,98907.40
2022-09-28T00:22:01.724Z,98905.96
2022-09-28T00:24:28.775Z,98907.82
2022-09-28T00:26:57.309Z,98905.05
2022-09-28T00:29:26.480Z,98903.56
2022-09-28T00:32:00.544Z,98900.27
2022-09-28T00:34:27.946Z,98895.42
2022-09-28T00:36:55.029Z,98891.20
2022-09-28T00:39:21.766Z,98893.54
2022-09-28T00:41:48.841Z,98888.29
2022-09-28T00:44:24.536Z,98884.83
2022-09-28T00:47:01.149Z,98879.51
2022-09-28T00:50:12.096Z,98879.60
2022-09-28T00:53:01.416Z,98876.79
2022-09-28T00:55:34.025Z,98870.49
2022-09-28T00:58:04.359Z,98868.73
2022-09-28T01:00:31.264Z,98866.10
2022-09-28T01:02:59.674Z,98863.38
2022-09-28T01:05:27.372Z,98860.38
2022-09-28T01:07:56.250Z,98854.33
2022-09-28T01:10:23.197Z,98852.04
2022-09-28T01:12:49.974Z,98845.41
2022-09-28T01:15:16.859Z,98845.63
2022-09-28T01:17:49.976Z,98844.17
2022-09-28T01:20:55.798Z,98844.95
2022-09-28T01:23:45.139Z,98841.59
2022-09-28T01:26:33.419Z,98841.80
2022-09-28T01:29:08.532Z,98835.95
2022-09-28T01:31:36.572Z,98830.20
2022-09-28T01:34:36.977Z,98828.67
2022-09-28T01:37:09.761Z,98824.42
2022-09-28T01:39:41.658Z,98822.46
2022-09-28T01:42:16.939Z,98824.22
2022-09-28T01:44:47.438Z,98820.78
2022-09-28T01:47:17.753Z,98820.02
2022-09-28T01:49:49.420Z,98816.98
2022-09-28T01:52:25.457Z,98810.38
2022-09-28T01:54:57.837Z,98806.29
2022-09-28T01:57:33.691Z,98806.98
2022-09-28T02:00:10.601Z,98803.55
2022-09-28T02:02:48.300Z,98803.98
2022-09-28T02:05:25.058Z,98802.89
2022-09-28T02:08:03.306Z,98800.34
2022-09-28T02:10:41.700Z,98797.59
2022-09-28T02:13:19.654Z,98795.89
2022-09-28T02:15:56.396Z,98797.59
2022-09-28T02:18:23.084Z,98791.86
2022-09-28T02:21:09.488Z,98788.77
2022-09-28T02:23:40.857Z,98786.98
2022-09-28T02:26:14.218Z,98786.41
2022-09-28T02:28:41.152Z,98787.67
2022-09-28T02:31:11.014Z,98783.77
2022-09-28T02:33:41.138Z,98783.36
2022-09-28T02:36:11.336Z,98784.55
2022-09-28T02:38:38.935Z,98774.95
2022-09-28T02:41:16.788Z,98776.42
2022-09-28T02:44:01.742Z,98778.20
2022-09-28T02:46:35.752Z,98774.42
2022-09-28T02:49:21.766Z,98774.58
2022-09-28T02:52:01.097Z,98770.45
2022-09-28T02:55:01.627Z,98773.93
2022-09-28T02:57:48.091Z,98770.55
2022-09-28T03:00:22.840Z,98768.91
2022-09-28T03:02:59.174Z,98766.85
2022-09-28T03:05:30.210Z,98765.11
2022-09-28T03:08:03.635Z,98766.20
2022-09-28T03:10:36.297Z,98760.42
2022-09-28T03:13:04.602Z,98760.23
2022-09-28T03:15:33.561Z,98756.36
2022-09-28T03:18:00.628Z,98755.73
2022-09-28T03:20:29.562Z,98753.56
2022-09-28T03:23:22.820Z,98756.39
2022-09-28T03:25:43.123Z,98755.11
2022-09-28T03:28:09.753Z,98756.25
2022-09-28T03:30:36.730Z,98756.56
2022-09-28T03:33:03.527Z,98757.03
2022-09-28T03:35:30.422Z,98755.86
2022-09-28T03:37:57.260Z,98749.92
2022-09-28T03:40:24.126Z,98747.37
2022-09-28T03:42:50.991Z,98747.01
2022-09-28T03:45:17.833Z,98747.89
2022-09-28T03:47:48.607Z,98749.41
2022-09-28T03:50:15.673Z,98746.27
2022-09-28T03:52:42.867Z,98745.66
2022-09-28T03:55:10.816Z,98743.81
2022-09-28T03:57:38.313Z,98740.32
2022-09-28T04:00:06.129Z,98740.27
2022-09-28T04:02:34.628Z,98733.97
2022-09-28T04:05:01.897Z,98734.70
2022-09-28T04:07:31.116Z,98732.05
2022-09-28T04:09:58.923Z,98733.50
2022-09-28T04:12:25.797Z,98727.89
2022-09-28T04:14:52.575Z,98725.00
2022-09-28T04:17:19.330Z,98717.92
2022-09-28T04:19:46.947Z,98720.86
2022-09-28T04:22:14.277Z,98723.33
2022-09-28T04:24:43.511Z,98718.74
2022-09-28T04:27:29.023Z,98718.59
2022-09-28T04:29:55.817Z,98717.73
2022-09-28T04:32:22.955Z,98718.09
2022-09-28T04:34:51.294Z,98719.64
2022-09-28T04:37:18.288Z,98715.80
2022-09-28T04:39:48.409Z,98713.61
2022-09-28T04:42:15.981Z,98712.72
2022-09-28T04:44:43.020Z,98709.79
2022-09-28T04:47:09.862Z,98712.18
2022-09-28T04:49:38.336Z,98709.83
2022-09-28T04:52:06.123Z,98710.15
2022-09-28T04:54:33.078Z,98707.49
2022-09-28T04:57:00.165Z,98705.93
2022-09-28T04:59:26.804Z,98706.27
2022-09-28T05:01:54.104Z,98703.81
2022-09-28T05:04:25.073Z,98704.59
2022-09-28T05:06:53.066Z,98704.42
2022-09-28T05:09:19.932Z,98699.73
2022-09-28T05:11:49.088Z,98703.36
2022-09-28T05:14:16.700Z,98703.52
2022-09-28T05:16:44.839Z,98705.55
2022-09-28T05:19:12.456Z,98702.31
2022-09-28T05:21:39.651Z,98702.15
2022-09-28T05:24:07.627Z,98702.55
2022-09-28T05:26:34.772Z,98704.64
2022-09-28T05:29:01.483Z,98702.45
2022-09-28T05:31:28.442Z,98702.27
2022-09-28T05:33:55.316Z,98700.84
2022-09-28T05:36:22.420Z,98701.05
2022-09-28T05:38:49.056Z,98700.74
2022-09-28T05:41:15.941Z,98698.79
2022-09-28T05:43:44.062Z,98696.70
2022-09-28T05:46:11.313Z,98695.64
2022-09-28T05:48:38.284Z,98696.86
2022-09-28T05:51:04.888Z,98697.42
2022-09-28T05:53:32.063Z,98693.97
2022-09-28T05:55:59.456Z,98694.50
2022-09-28T05:58:26.201Z,98693.08
2022-09-28T06:00:56.475Z,98697.70
2022-09-28T06:03:23.638Z,98693.05
2022-09-28T06:05:50.551Z,98692.63
2022-09-28T06:08:17.386Z,98694.91
2022-09-28T06:10:44.241Z,98695.27
2022-09-28T06:13:12.000Z,98695.05
2022-09-28T06:15:41.918Z,98697.21
2022-09-28T06:18:16.360Z,98697.63
2022-09-28T06:20:43.165Z,98699.53
2022-09-28T06:23:10.909Z,98699.02
2022-09-28T06:25:38.394Z,98701.02
2022-09-28T06:28:07.428Z,98704.81
2022-09-28T06:30:38.341Z,98701.80
2022-09-28T06:33:07.090Z,98704.67
2022-09-28T06:35:33.743Z,98702.10
2022-09-28T06:38:01.348Z,98706.85
2022-09-28T06:40:28.472Z,98709.88
2022-09-28T06:43:04.726Z,98711.55
2022-09-28T06:45:31.309Z,98710.49
2022-09-28T06:47:59.672Z,98706.98
2022-09-28T06:50:28.116Z,98713.64
2022-09-28T06:52:55.583Z,98717.73
2022-09-28T06:55:22.680Z,98720.23
2022-09-28T06:57:59.566Z,98719.99
2022-09-28T07:00:33.915Z,98720.91
2022-09-28T07:03:03.158Z,98723.02
2022-09-28T07:05:31.796Z,98718.29
2022-09-28T07:07:58.872Z,98716.36
2022-09-28T07:10:30.700Z,98720.34
2022-09-28T07:12:59.242Z,98719.65
2022-09-28T07:15:26.944Z,98721.19
2022-09-28T07:18:02.479Z,98722.61
2022-09-28T07:20:30.345Z,98723.08
2022-09-28T07:23:15.700Z,98729.73
2022-09-28T07:25:49.533Z,98730.09
2022-09-28T07:28:17.845Z,98731.22
2022-09-28T07:30:44.764Z,98735.10
2022-09-28T07:33:14.629Z,98734.29
2022-09-28T07:35:42.441Z,98737.48
2022-09-28T07:38:10.918Z,98740.23
2022-09-28T07:40:56.502Z,98738.23
2022-09-28T07:43:23.128Z,98741.92
2022-09-28T07:45:55.258Z,98746.00
2022-09-28T07:48:22.377Z,98745.23
2022-09-28T07:50:57.235Z,98752.13
2022-09-28T07:53:25.432Z,98749.87
2022-09-28T07:55:57.468Z,98751.79
2022-09-28T07:58:24.357Z,98754.42
2022-09-28T08:00:51.352Z,98755.80
2022-09-28T08:03:19.805Z,98758.61
2022-09-28T08:05:47.360Z,98764.30
2022-09-28T08:08:15.102Z,98765.73
2022-09-28T08:10:47.223Z,98765.20
2022-09-28T08:13:15.068Z,98765.44
2022-09-28T08:15:42.418Z,98768.40
2022-09-28T08:18:09.685Z,98771.05
2022-09-28T08:20:55.092Z,98771.92
2022-09-28T08:23:23.644Z,98777.13
2022-09-28T08:25:53.841Z,98781.98
2022-09-28T08:28:22.559Z,98786.61
2022-09-28T08:30:49.882Z,98792.36
2022-09-28T08:33:18.431Z,98791.27
2022-09-28T08:35:46.942Z,98796.25
2022-09-28T08:38:14.367Z,98799.65
2022-09-28T08:41:03.881Z,98796.25
2022-09-28T08:44:05.606Z,98801.33
2022-09-28T08:46:42.101Z,98804.80
2022-09-28T08:49:26.271Z,98807.55
2022-09-28T08:52:17.077Z,98808.16
2022-09-28T08:54:56.210Z,98811.85
2022-09-28T08:57:51.897Z,98816.20
2022-09-28T09:00:33.933Z,98821.98
2022-09-28T09:03:05.388Z,98823.34
2022-09-28T09:05:52.783Z,98825.73
2022-09-28T09:08:29.976Z,98828.96
2022-09-28T09:11:23.779Z,98832.47
2022-09-28T09:14:02.963Z,98837.53
2022-09-28T09:16:46.433Z,98844.00
2022-09-28T09:19:32.906Z,98844.39
2022-09-28T09:22:11.179Z,98842.14
2022-09-28T09:25:05.879Z,98839.02
2022-09-28T09:27:56.299Z,98843.88
2022-09-28T09:30:25.804Z,98848.35
2022-09-28T09:33:15.965Z,98852.73
2022-09-28T09:36:25.665Z,98856.08
2022-09-28T09:39:01.970Z,98862.70
2022-09-28T09:41:48.282Z,98860.63
2022-09-28T09:44:56.830Z,98866.54
2022-09-28T09:48:03.691Z,98866.69
2022-09-28T09:50:30.612Z,98869.45
2022-09-28T09:53:15.790Z,98872.24
2022-09-28T09:55:46.006Z,98877.38
2022-09-28T09:58:31.060Z,98881.49
2022-09-28T10:01:26.900Z,98884.39
2022-09-28T10:03:55.483Z,98887.33
2022-09-28T10:06:35.103Z,98888.95
2022-09-28T10:09:16.894Z,98892.14
2022-09-28T10:11:45.227Z,98890.95
2022-09-28T10:14:18.029Z,98896.12
2022-09-28T10:16:48.415Z,98893.33
2022-09-28T10:19:19.475Z,98895.03
2022-09-28T10:21:50.271Z,98893.92
2022-09-28T10:24:29.024Z,98894.13
2022-09-28T10:26:59.172Z,98897.00
2022-09-28T10:29:32.257Z,98893.30
2022-09-28T10:31:59.032Z,98896.13
2022-09-28T10:34:29.434Z,98901.13
2022-09-28T10:37:00.561Z,98902.39
2022-09-28T10:39:55.563Z,98905.09
2022-09-28T10:42:33.649Z,98909.98
2022-09-28T10:45:15.502Z,98909.03
2022-09-28T10:47:44.599Z,98912.79
2022-09-28T10:50:23.871Z,98915.50
2022-09-28T10:52:50.701Z,98916.80
2022-09-28T10:55:32.337Z,98920.89
2022-09-28T10:58:00.029Z,98921.63
2022-09-28T11:00:45.171Z,98922.05
2022-09-28T11:03:32.150Z,98924.46
2022-09-28T11:06:11.304Z,98924.95
2022-09-28T11:08:41.629Z,98925.22
2022-09-28T11:11:14.649Z,98930.16
2022-09-28T11:13:51.326Z,98929.26
2022-09-28T11:16:38.057Z,98931.42
2022-09-28T11:19:28.163Z,98935.20
2022-09-28T11:21:54.758Z,98934.55
2022-09-28T11:24:24.451Z,98932.70
2022-09-28T11:26:54.637Z,98934.59
2022-09-28T11:29:26.800Z,98937.02
2022-09-28T11:31:53.672Z,98940.30
2022-09-28T11:34:41.538Z,98939.40
2022-09-28T11:37:41.818Z,98938.45
2022-09-28T11:40:34.878Z,98940.85
2022-09-28T11:43:32.162Z,98946.03
2022-09-28T11:46:11.867Z,98948.30
2022-09-28T11:49:02.751Z,98944.58
2022-09-28T11:51:36.129Z,98944.84
2022-09-28T11:54:16.012Z,98945.88
2022-09-28T11:56:47.769Z,98950.59
2022-09-28T11:59:27.537Z,98952.89
2022-09-28T12:01:58.967Z,98952.73
2022-09-28T12:04:40.077Z,98956.13
2022-09-28T12:07:35.554Z,98958.67
2022-09-28T12:10:05.079Z,98953.52
2022-09-28T12:12:37.191Z,98955.14
2022-09-28T12:15:23.883Z,98952.91
2022-09-28T12:17:55.601Z,98955.33
2022-09-28T12:20:30.758Z,98961.66
2022-09-28T12:23:00.285Z,98960.02
2022-09-28T12:25:31.453Z,98955.48
2022-09-28T12:28:02.248Z,98953.46
2022-09-28T12:30:35.436Z,98957.80
2022-09-28T12:33:07.073Z,98955.11
2022-09-28T12:35:55.468Z,98952.85
2022-09-28T12:38:31.395Z,98954.52
2022-09-28T12:41:03.688Z,98957.00
2022-09-28T12:44:04.664Z,98957.58
2022-09-28T12:46:46.158Z,98956.32
2022-09-28T12:50:33.371Z,98959.02
2022-09-28T12:52:22.858Z,98962.30
2022-09-28T12:55:16.209Z,98964.06
2022-09-28T12:57:55.808Z,98964.02
2022-09-28T13:00:25.250Z,98958.66
2022-09-28T13:03:13.543Z,98958.99
2022-09-28T13:06:17.424Z,98961.91
2022-09-28T13:09:01.434Z,98963.48
2022-09-28T13:11:53.638Z,98962.43
2022-09-28T13:14:57.347Z,98969.36
2022-09-28T13:17:55.638Z,98965.39
2022-09-28T13:20:32.071Z,98969.77
2022-09-28T13:23:20.340Z,98966.27
2022-09-28T13:25:56.618Z,98965.83
2022-09-28T13:28:27.364Z,98964.14
2022-09-28T13:30:56.828Z,98970.58
2022-09-28T13:33:31.428Z,98968.65
2022-09-28T13:35:58.078Z,98975.36
2022-09-28T13:38:25.466Z,98973.71
2022-09-28T13:41:04.054Z,98975.75
2022-09-28T13:43:52.812Z,98975.52
2022-09-28T13:46:22.037Z,98972.02
2022-09-28T13:48:54.955Z,98971.05
2022-09-28T13:51:44.987Z,98976.95
2022-09-28T13:54:25.867Z,98976.05
2022-09-28T13:56:52.380Z,98982.20
2022-09-28T13:59:28.814Z,98980.96
2022-09-28T14:02:06.801Z,98985.50
2022-09-28T14:05:26.074Z,98984.27
2022-09-28T14:08:30.231Z,98995.52
2022-09-28T14:11:17.637Z,98994.61
2022-09-28T14:13:44.053Z,98996.02
2022-09-28T14:16:22.434Z,98994.30
2022-09-28T14:18:54.209Z,98996.78
2022-09-28T14:21:54.823Z,99000.70
2022-09-28T14:24:44.539Z,99002.34
2022-09-28T14:27:29.196Z,99005.79
2022-09-28T14:30:20.546Z,99011.23
2022-09-28T14:32:58.386Z,99013.47
2022-09-28T14:35:34.522Z,99015.51
2022-09-28T14:38:24.774Z,99011.45
2022-09-28T14:41:10.842Z,99015.08
2022-09-28T14:43:58.230Z,99016.27
2022-09-28T14:46:24.837Z,99018.26
2022-09-28T14:48:52.701Z,99017.50
2022-09-28T14:51:26.276Z,99018.20
2022-09-28T14:54:02.466Z,99024.09
2022-09-28T14:56:40.421Z,99019.56
2022-09-28T14:59:13.843Z,99024.60
2022-09-28T15:01:41.951Z,99027.27
2022-09-28T15:04:12.436Z,99025.09
2022-09-28T15:06:47.917Z,99022.71
2022-09-28T15:09:33.998Z,99018.52
2022-09-28T15:12:01.408Z,99022.52
2022-09-28T15:14:33.780Z,99018.48
2022-09-28T15:17:08.107Z,99019.65
2022-09-28T15:20:01.000Z,99016.86
2022-09-28T15:22:27.521Z,99017.52
2022-09-28T15:25:01.413Z,99019.25
2022-09-28T15:27:39.107Z,99019.15
2022-09-28T15:30:25.254Z,99023.64
2022-09-28T15:32:54.664Z,99024.88
2022-09-28T15:35:26.736Z,99026.31
2022-09-28T15:37:55.215Z,99029.92
2022-09-28T15:40:34.589Z,99029.75
2022-09-28T15:43:02.455Z,99034.86
2022-09-28T15:45:39.911Z,99038.26
2022-09-28T15:48:33.953Z,99039.91
2022-09-28T15:51:11.778Z,99041.09
2022-09-28T15:53:47.182Z,99047.57
2022-09-28T15:56:14.007Z,99048.98
2022-09-28T15:58:40.472Z,99057.02
2022-09-28T16:01:36.084Z,99055.13
2022-09-28T16:04:35.237Z,99055.60
2022-09-28T16:07:11.743Z,99057.95
2022-09-28T16:10:13.795Z,99058.17
2022-09-28T16:12:40.139Z,99061.54
2022-09-28T16:15:18.301Z,99062.98
2022-09-28T16:17:56.909Z,99063.19
2022-09-28T16:20:23.309Z,99062.59
2022-09-28T16:22:50.711Z,99061.69
2022-09-28T16:25:24.129Z,99064.64
2022-09-28T16:27:53.612Z,99065.17
2022-09-28T16:30:24.321Z,99065.10
2022-09-28T16:32:57.403Z,99064.41
2022-09-28T16:35:30.403Z,99068.71
2022-09-28T16:38:00.623Z,99066.17
2022-09-28T16:40:27.883Z,99069.40
2022-09-28T16:42:58.847Z,99068.95
2022-09-28T16:45:25.887Z,99067.55
2022-09-28T16:47:56.443Z,99071.56
2022-09-28T16:50:24.266Z,99072.41
2022-09-28T16:53:30.814Z,99073.27
2022-09-28T16:55:58.691Z,99080.13
2022-09-28T16:58:25.704Z,99083.90
2022-09-28T17:00:54.026Z,99084.43
2022-09-28T17:03:23.351Z,99085.71
2022-09-28T17:05:51.514Z,99088.48
2022-09-28T17:08:22.137Z,99089.92
2022-09-28T17:11:14.482Z,99090.77
2022-09-28T17:13:39.834Z,99091.08
2022-09-28T17:16:14.290Z,99094.29
2022-09-28T17:18:41.567Z,99100.81
2022-09-28T17:21:19.490Z,99103.38
2022-09-28T17:23:47.819Z,99103.34
2022-09-28T17:26:34.385Z,99107.34
2022-09-28T17:29:01.927Z,99107.75
2022-09-28T17:31:29.924Z,99110.50
2022-09-28T17:33:56.856Z,99110.55
2022-09-28T17:36:25.794Z,99114.09
2022-09-28T17:38:52.730Z,99117.96
2022-09-28T17:41:20.975Z,99118.02
2022-09-28T17:43:48.304Z,99124.73
2022-09-28T17:46:31.390Z,99125.77
2022-09-28T17:49:00.514Z,99126.94
2022-09-28T17:51:35.404Z,99131.86
2022-09-28T17:54:02.220Z,99131.45
2022-09-28T17:56:32.403Z,99132.20
2022-09-28T17:59:07.831Z,99135.84
2022-09-28T18:01:38.127Z,99140.07
2022-09-28T18:04:06.598Z,99139.12
2022-09-28T18:06:34.360Z,99137.87
2022-09-28T18:09:05.098Z,99139.80
2022-09-28T18:11:33.084Z,99138.98
2022-09-28T18:14:00.035Z,99143.40
2022-09-28T18:16:28.517Z,99140.86
2022-09-28T18:18:55.358Z,99145.52
2022-09-28T18:21:22.209Z,99147.73
2022-09-28T18:23:48.788Z,99150.89
2022-09-28T18:26:15.936Z,99149.38
2022-09-28T18:28:42.789Z,99154.39
2022-09-28T18:31:14.389Z,99153.05
2022-09-28T18:33:51.469Z,99158.64
2022-09-28T18:36:18.196Z,99158.88
2022-09-28T18:38:45.031Z,99158.56
2022-09-28T18:41:17.465Z,99161.53
2022-09-28T18:43:55.061Z,99163.77
2022-09-28T18:46:21.961Z,99167.96
2022-09-28T18:48:49.039Z,99170.86
2022-09-28T18:51:15.965Z,99173.22
2022-09-28T18:53:42.696Z,99175.34
2022-09-28T18:56:13.056Z,99178.41
2022-09-28T18:58:41.270Z,99176.48
2022-09-28T19:01:29.377Z,99178.41
2022-09-28T19:04:01.682Z,99178.41
2022-09-28T19:06:29.690Z,99182.11
2022-09-28T19:08:56.912Z,99179.79
2022-09-28T19:11:24.739Z,99183.63
2022-09-28T19:13:53.238Z,99186.25
2022-09-28T19:16:21.999Z,99185.36
2022-09-28T19:18:50.501Z,99190.67
2022-09-28T19:21:17.169Z,99189.33
2022-09-28T19:23:48.979Z,99193.83
2022-09-28T19:26:20.965Z,99195.75
2022-09-28T19:28:48.160Z,99196.58
2022-09-28T19:31:15.108Z,99199.67
2022-09-28T19:33:42.141Z,99196.10
2022-09-28T19:36:18.335Z,99197.85
2022-09-28T19:38:46.173Z,99197.98
2022-09-28T19:41:45.315Z,99199.64
2022-09-28T19:44:19.830Z,99202.10
2022-09-28T19:46:46.780Z,99202.83
2022-09-28T19:49:19.543Z,99203.64
2022-09-28T19:54:38.114Z,99206.18
2022-09-28T19:57:07.717Z,99204.29
2022-09-28T19:59:36.435Z,99203.27
2022-09-28T20:02:10.741Z,99201.10
2022-09-28T20:04:37.882Z,99202.09
2022-09-28T20:07:05.136Z,99202.86
2022-09-28T20:09:32.566Z,99203.52
2022-09-28T20:11:59.254Z,99203.59
2022-09-28T20:14:31.789Z,99200.59
2022-09-28T20:17:00.743Z,99209.71
2022-09-28T20:19:28.261Z,99211.02
2022-09-28T20:21:58.572Z,99214.71
2022-09-28T20:24:25.628Z,99217.02
2022-09-28T20:26:52.369Z,99217.42
2022-09-28T20:29:19.042Z,99217.76
2022-09-28T20:31:46.304Z,99219.54
2022-09-28T20:34:13.364Z,99221.70
2022-09-28T20:36:42.379Z,99221.80
2022-09-28T20:39:11.079Z,99217.11
2022-09-28T20:41:37.932Z,99219.02
2022-09-28T20:44:06.496Z,99224.05
2022-09-28T20:46:35.377Z,99223.77
2022-09-28T20:49:02.654Z,99220.16
2022-09-28T20:51:29.225Z,99219.52
2022-09-28T20:53:57.520Z,99214.79
2022-09-28T20:56:40.386Z,99219.63
2022-09-28T20:59:08.326Z,99223.83
2022-09-28T21:01:35.300Z,99224.95
2022-09-28T21:04:04.792Z,99226.04
2022-09-28T21:06:34.004Z,99230.42
2022-09-28T21:09:01.253Z,99229.55
2022-09-28T21:11:29.652Z,99237.14
2022-09-28T21:13:59.166Z,99237.36
2022-09-28T21:16:27.748Z,99238.59
2022-09-28T21:18:54.658Z,99238.66
2022-09-28T21:21:22.618Z,99238.68
2022-09-28T21:23:53.230Z,99244.38
2022-09-28T21:26:25.267Z,99243.80
2022-09-28T21:29:06.070Z,99247.80
2022-09-28T21:31:39.087Z,99252.53
2022-09-28T21:34:05.960Z,99253.36
2022-09-28T21:36:32.970Z,99258.44
2022-09-28T21:38:59.479Z,99255.11
2022-09-28T21:41:26.015Z,99260.08
2022-09-28T21:43:53.007Z,99259.19
2022-09-28T21:46:19.831Z,99260.20
2022-09-28T21:48:46.708Z,99263.10
2022-09-28T21:51:15.002Z,99260.10
2022-09-28T21:53:41.544Z,99258.69
2022-09-28T21:56:12.962Z,99258.23
2022-09-28T21:58:40.249Z,99258.23
2022-09-28T22:01:11.292Z,99258.20
2022-09-28T22:03:38.174Z,99258.77
2022-09-28T22:06:07.817Z,99258.98
2022-09-28T22:08:36.079Z,99257.65
2022-09-28T22:11:10.419Z,99261.42
2022-09-28T22:13:41.018Z,99261.94
2022-09-28T22:16:12.800Z,99258.70
2022-09-28T22:18:39.700Z,99259.80
2022-09-28T22:21:12.005Z,99260.83
2022-09-28T22:23:39.243Z,99262.58
2022-09-28T22:26:17.750Z,99262.98
2022-09-28T22:29:01.934Z,99260.73
2022-09-28T22:31:31.740Z,99266.23
2022-09-28T22:33:58.845Z,99262.02
2022-09-28T22:36:25.875Z,99261.91
2022-09-28T22:38:53.785Z,99263.88
2022-09-28T22:41:20.889Z,99262.48
2022-09-28T22:43:49.834Z,99266.97
2022-09-28T22:46:22.329Z,99266.23
2022-09-28T22:48:51.088Z,99271.54
2022-09-28T22:51:18.159Z,99271.63
2022-09-28T22:53:45.087Z,99272.27
2022-09-28T22:56:16.044Z,99268.45
2022-09-28T22:58:45.256Z,99268.85
2022-09-28T23:01:14.713Z,99271.91
2022-09-28T23:03:42.227Z,99271.44
2022-09-28T23:06:13.753Z,99274.04
2022-09-28T23:08:40.188Z,99275.73
2022-09-28T23:11:10.510Z,99277.47
2022-09-28T23:13:38.286Z,99277.84
2022-09-28T23:16:09.358Z,99274.14
2022-09-28T23:18:38.412Z,99267.90
2022-09-28T23:21:09.363Z,99266.06
2022-09-28T23:23:35.907Z,99264.27
2022-09-28T23:26:11.586Z,99266.92
2022-09-28T23:28:38.479Z,99264.08
2022-09-28T23:31:25.751Z,99263.08
2022-09-28T23:33:56.450Z,99261.40
2022-09-28T23:36:23.653Z,99261.14
2022-09-28T23:38:50.578Z,99262.22
2022-09-28T23:41:17.129Z,99265.97
2022-09-28T23:43:43.904Z,99270.09
2022-09-28T23:46:11.094Z,99273.55
2022-09-28T23:48:38.059Z,99280.30
2022-09-28T23:51:07.662Z,99278.23
2022-09-28T23:53:35.094Z,99280.20
2022-09-28T23:56:02.034Z,99278.40
2022-09-28T23:58:28.942Z,99281.13
